Time;durP1;ratioP1;P1;durP2;ratioP2;P2;SDS_P1;SDS_P2;PMS_P1;PMS_P2;Temp;Humidity;BMP_temperature;BMP_pressure;BME280_temperature;BME280_humidity;BME280_pressure;Samples;Min_cycle;Max_cycle;Signal;HPM_P1;HPM_P2
2023/05/06 00:00:46;;;;;;;;;;;;;;;19.43;56.48;101305.38;1250349;23;642;-80
2023/05/06 00:01:36;;;;;;;;;;;;;;;19.42;56.07;101301.81;1249876;23;618;-80
2023/05/06 00:02:28;;;;;;;;;;;;;;;19.42;55.59;101306.38;1248303;23;636;-82
2023/05/06 00:03:18;;;;;;;;;;;;;;;19.42;56.43;101304.53;1248252;23;673;-82
2023/05/06 00:04:09;;;;;;;;;;;;;;;19.41;56.55;101299.25;1250241;23;729;-83
2023/05/06 00:04:59;;;;;;;;;;;;;;;19.42;56.38;101307.22;1252048;23;728;-81
2023/05/06 00:05:50;;;;;;;;;;;;;;;19.42;56.05;101304.53;1252443;23;704;-82
2023/05/06 00:06:41;;;;;;;;;;;;;;;19.42;56.29;101304.53;1250929;23;689;-83
2023/05/06 00:07:31;;;;;;;;;;;;;;;19.43;55.86;101311.63;1249013;23;678;-85
2023/05/06 00:08:22;;;;;;;;;;;;;;;19.43;56.13;101308.09;1249379;23;677;-84
2023/05/06 00:09:12;;;;;;;;;;;;;;;19.42;56.52;101304.53;1251202;23;606;-83
2023/05/06 00:10:03;;;;;;;;;;;;;;;19.39;56.75;101293.16;1252724;23;609;-84
2023/05/06 00:10:53;;;;;;;;;;;;;;;19.39;56.05;101299.41;1252759;23;586;-85
2023/05/06 00:11:44;;;;;;;;;;;;;;;19.37;56.55;101295.13;1252773;23;732;-83
2023/05/06 00:12:35;;;;;;;;;;;;;;;19.36;56.82;101301.53;1252770;23;812;-84
2023/05/06 00:13:25;;;;;;;;;;;;;;;19.36;56.23;101293.44;1248805;23;677;-83
2023/05/06 00:14:16;;;;;;;;;;;;;;;19.35;57.14;101291.72;1252926;23;699;-85
2023/05/06 00:15:06;;;;;;;;;;;;;;;19.32;56.25;101298.31;1253047;23;637;-85
2023/05/06 00:15:57;;;;;;;;;;;;;;;19.34;56.58;101295.47;1253076;23;656;-85
2023/05/06 00:16:47;;;;;;;;;;;;;;;19.34;56.63;101295.47;1249386;23;690;-84
2023/05/06 00:17:37;;;;;;;;;;;;;;;19.32;57.37;101301.00;1251377;23;627;-81
2023/05/06 00:18:28;;;;;;;;;;;;;;;19.31;56.30;101296.59;1250327;23;673;-82
2023/05/06 00:19:18;;;;;;;;;;;;;;;19.29;57.47;101293.19;1252062;23;649;-82
2023/05/06 00:20:12;;;;;;;;;;;;;;;19.25;57.44;101294.47;1251861;23;763;-81
2023/05/06 00:21:02;;;;;;;;;;;;;;;19.23;57.57;101292.91;1251892;23;665;-81
2023/05/06 00:21:54;;;;;;;;;;;;;;;19.22;57.17;101294.75;1247356;23;770;-81
2023/05/06 00:22:45;;;;;;;;;;;;;;;19.19;57.33;101296.88;1251360;23;643;-81
2023/05/06 00:23:35;;;;;;;;;;;;;;;19.16;57.40;101291.78;1251722;23;646;-81
2023/05/06 00:24:25;;;;;;;;;;;;;;;19.19;57.49;101294.16;1252071;23;630;-81
2023/05/06 00:25:16;;;;;;;;;;;;;;;19.22;56.99;101294.75;1251955;23;669;-81
2023/05/06 00:26:06;;;;;;;;;;;;;;;19.29;57.02;101289.63;1252695;23;636;-82
2023/05/06 00:26:57;;;;;;;;;;;;;;;19.28;57.53;101290.63;1251875;23;633;-83
2023/05/06 00:27:47;;;;;;;;;;;;;;;19.27;56.90;101294.31;1248176;23;643;-84
2023/05/06 00:28:38;;;;;;;;;;;;;;;19.28;57.62;101290.63;1248914;23;773;-85
2023/05/06 00:29:28;;;;;;;;;;;;;;;19.26;56.71;101290.75;1248335;23;610;-81
2023/05/06 00:30:19;;;;;;;;;;;;;;;19.28;57.00;101298.72;1251799;23;764;-80
2023/05/06 00:31:09;;;;;;;;;;;;;;;19.26;57.39;101293.47;1250049;23;653;-81
2023/05/06 00:32:00;;;;;;;;;;;;;;;19.30;57.05;101294.03;1251761;23;629;-80
2023/05/06 00:32:50;;;;;;;;;;;;;;;19.30;57.25;101292.19;1251528;23;623;-81
2023/05/06 00:33:41;;;;;;;;;;;;;;;19.30;57.07;101294.03;1251593;23;645;-81
2023/05/06 00:34:34;;;;;;;;;;;;;;;19.24;57.18;101287.34;1251555;23;637;-81
2023/05/06 00:35:25;;;;;;;;;;;;;;;19.27;56.83;101294.31;1247148;23;632;-80
2023/05/06 00:36:15;;;;;;;;;;;;;;;19.27;56.83;101289.75;1247457;23;797;-80
2023/05/06 00:37:06;;;;;;;;;;;;;;;19.27;57.18;101283.50;1247229;23;800;-80
2023/05/06 00:37:56;;;;;;;;;;;;;;;19.30;57.49;101291.34;1248000;23;650;-80
2023/05/06 00:38:46;;;;;;;;;;;;;;;19.26;57.18;101287.22;1247860;23;619;-80
2023/05/06 00:39:37;;;;;;;;;;;;;;;19.22;57.95;101283.94;1251288;23;645;-81
2023/05/06 00:40:27;;;;;;;;;;;;;;;19.21;57.23;101275.97;1247790;23;603;-80
2023/05/06 00:41:18;;;;;;;;;;;;;;;19.21;57.21;101278.69;1247369;23;646;-78
2023/05/06 00:42:08;;;;;;;;;;;;;;;19.22;56.99;101285.78;1247780;23;635;-79
2023/05/06 00:42:59;;;;;;;;;;;;;;;19.21;57.17;101282.22;1251155;23;634;-79
2023/05/06 00:43:49;;;;;;;;;;;;;;;19.24;57.36;101284.66;1248831;23;958;-79
2023/05/06 00:44:39;;;;;;;;;;;;;;;19.23;57.25;101282.94;1251187;23;632;-77
2023/05/06 00:45:30;;;;;;;;;;;;;;;19.25;56.69;101282.81;1247252;23;626;-79
2023/05/06 00:46:20;;;;;;;;;;;;;;;19.21;56.57;101278.69;1251267;23;653;-79
2023/05/06 00:47:11;;;;;;;;;;;;;;;19.20;57.33;101288.63;1251170;23;654;-79
2023/05/06 00:48:01;;;;;;;;;;;;;;;19.18;56.69;101293.31;1251291;23;630;-79
2023/05/06 00:48:52;;;;;;;;;;;;;;;19.19;56.95;101288.78;1247211;23;658;-79
2023/05/06 00:49:42;;;;;;;;;;;;;;;19.17;57.37;101288.91;1251339;23;644;-78
2023/05/06 00:50:33;;;;;;;;;;;;;;;19.17;57.04;101288.91;1248704;23;639;-78
2023/05/06 00:51:23;;;;;;;;;;;;;;;19.16;56.85;101283.69;1250431;23;1952;-78
2023/05/06 00:52:13;;;;;;;;;;;;;;;19.15;57.56;101282.81;1251313;23;629;-79
2023/05/06 00:53:04;;;;;;;;;;;;;;;19.14;56.99;101282.97;1251131;23;641;-78
2023/05/06 00:53:55;;;;;;;;;;;;;;;19.11;56.88;101277.84;1251417;23;634;-77
2023/05/06 00:54:46;;;;;;;;;;;;;;;19.12;57.44;101285.81;1251148;23;624;-78
2023/05/06 00:55:36;;;;;;;;;;;;;;;19.12;57.50;101284.97;1251109;23;649;-78
2023/05/06 00:56:26;;;;;;;;;;;;;;;19.12;57.81;101285.81;1251318;23;614;-78
2023/05/06 00:57:17;;;;;;;;;;;;;;;19.11;57.97;101285.94;1251029;23;658;-77
2023/05/06 00:58:07;;;;;;;;;;;;;;;19.10;56.83;101274.28;1251271;23;610;-78
2023/05/06 00:58:58;;;;;;;;;;;;;;;19.13;57.47;101278.56;1247657;23;618;-78
2023/05/06 00:59:48;;;;;;;;;;;;;;;19.10;57.72;101281.53;1249967;23;621;-78
2023/05/06 01:00:39;;;;;;;;;;;;;;;19.09;56.72;101272.59;1249517;23;665;-78
2023/05/06 01:01:29;;;;;;;;;;;;;;;19.08;57.38;101273.59;1251038;23;633;-78
2023/05/06 01:02:20;;;;;;;;;;;;;;;19.11;57.55;101288.66;1251124;23;621;-78
2023/05/06 01:03:10;;;;;;;;;;;;;;;19.08;57.72;101269.03;1251078;23;660;-78
2023/05/06 01:04:01;;;;;;;;;;;;;;;19.08;57.56;101277.13;1247571;23;611;-77
2023/05/06 01:04:54;;;;;;;;;;;;;;;19.07;57.44;101277.28;1247681;23;627;-78
2023/05/06 01:05:45;;;;;;;;;;;;;;;19.02;57.49;101277.69;1248044;23;666;-77
2023/05/06 01:06:36;;;;;;;;;;;;;;;19.01;57.63;101278.69;1251207;23;638;-77
2023/05/06 01:07:27;;;;;;;;;;;;;;;19.04;57.27;101278.41;1247458;23;638;-78
2023/05/06 01:08:17;;;;;;;;;;;;;;;19.04;57.41;101278.41;1249783;23;665;-78
2023/05/06 01:09:07;;;;;;;;;;;;;;;19.06;57.30;101276.44;1250032;23;629;-78
2023/05/06 01:09:58;;;;;;;;;;;;;;;19.06;57.68;101264.78;1249463;23;631;-78
2023/05/06 01:10:48;;;;;;;;;;;;;;;19.04;57.81;101266.75;1248771;23;638;-78
2023/05/06 01:11:39;;;;;;;;;;;;;;;19.05;57.59;101263.91;1247087;23;1919;-78
2023/05/06 01:12:30;;;;;;;;;;;;;;;19.02;57.61;101266.91;1247544;23;657;-78
2023/05/06 01:13:20;;;;;;;;;;;;;;;19.06;56.95;101264.78;1248102;23;707;-78
2023/05/06 01:14:11;;;;;;;;;;;;;;;19.05;57.25;101263.91;1247812;23;618;-78
2023/05/06 01:15:05;;;;;;;;;;;;;;;19.07;57.56;101267.31;1248729;23;681;-78
2023/05/06 01:15:55;;;;;;;;;;;;;;;19.12;57.43;101268.75;1251444;23;610;-78
2023/05/06 01:16:46;;;;;;;;;;;;;;;19.13;57.76;101275.84;1247101;23;682;-78
2023/05/06 01:17:36;;;;;;;;;;;;;;;19.08;57.18;101273.59;1247425;23;645;-78
2023/05/06 01:18:27;;;;;;;;;;;;;;;19.07;57.67;101269.19;1247493;23;690;-78
2023/05/06 01:19:17;;;;;;;;;;;;;;;19.05;57.55;101268.47;1248400;23;776;-82
2023/05/06 01:20:10;;;;;;;;;;;;;;;19.02;57.18;101261.50;1249984;23;653;-87
2023/05/06 01:21:01;;;;;;;;;;;;;;;19.00;57.47;101266.19;1249622;23;655;-87
2023/05/06 01:21:51;;;;;;;;;;;;;;;19.01;57.75;101259.78;1250318;23;689;-86
2023/05/06 01:22:41;;;;;;;;;;;;;;;19.02;57.84;101261.50;1251358;23;642;-86
2023/05/06 01:23:32;;;;;;;;;;;;;;;19.00;57.28;101263.47;1252856;23;650;-85
2023/05/06 01:24:22;;;;;;;;;;;;;;;18.99;57.95;101259.06;1253114;23;658;-85
2023/05/06 01:25:13;;;;;;;;;;;;;;;19.02;57.43;101257.94;1252677;23;809;-83
2023/05/06 01:26:03;;;;;;;;;;;;;;;19.03;57.20;101260.50;1252843;23;650;-85
2023/05/06 01:26:54;;;;;;;;;;;;;;;19.00;57.69;101260.78;1248818;23;627;-85
2023/05/06 01:27:44;;;;;;;;;;;;;;;18.98;57.16;101261.94;1252894;23;637;-85
2023/05/06 01:28:34;;;;;;;;;;;;;;;18.98;57.64;101257.41;1248651;23;707;-86
2023/05/06 01:29:25;;;;;;;;;;;;;;;18.97;57.25;101262.94;1248981;23;701;-86
2023/05/06 01:30:15;;;;;;;;;;;;;;;18.96;57.86;101263.94;1250178;23;697;-85
2023/05/06 01:31:06;;;;;;;;;;;;;;;18.95;57.65;101268.50;1249115;23;623;-85
2023/05/06 01:31:56;;;;;;;;;;;;;;;18.92;57.58;101260.66;1249527;23;661;-85
2023/05/06 01:32:46;;;;;;;;;;;;;;;18.91;57.47;101267.06;1250352;23;626;-85
2023/05/06 01:33:37;;;;;;;;;;;;;;;18.88;57.40;101261.09;1249082;23;717;-85
2023/05/06 01:34:27;;;;;;;;;;;;;;;18.88;58.06;101261.94;1253172;23;626;-86
2023/05/06 01:35:18;;;;;;;;;;;;;;;18.89;58.30;101260.09;1248728;23;651;-82
2023/05/06 01:36:08;;;;;;;;;;;;;;;18.90;57.63;101259.94;1249846;23;670;-83
2023/05/06 01:36:59;;;;;;;;;;;;;;;18.90;57.75;101262.66;1249160;23;659;-84
2023/05/06 01:37:49;;;;;;;;;;;;;;;18.91;57.44;101258.09;1252860;23;673;-84
2023/05/06 01:38:39;;;;;;;;;;;;;;;18.88;58.09;101266.50;1253221;23;626;-84
2023/05/06 01:39:30;;;;;;;;;;;;;;;18.88;57.64;101261.94;1248465;23;654;-83
2023/05/06 01:40:20;;;;;;;;;;;;;;;18.90;57.71;101259.94;1252589;23;630;-82
2023/05/06 01:41:11;;;;;;;;;;;;;;;18.89;57.64;101257.41;1249164;23;631;-82
2023/05/06 01:42:01;;;;;;;;;;;;;;;18.90;57.69;101254.56;1247883;23;657;-83
2023/05/06 01:42:52;;;;;;;;;;;;;;;18.89;57.48;101250.16;1251375;23;632;-80
2023/05/06 01:43:42;;;;;;;;;;;;;;;18.91;57.10;101256.25;1251253;23;701;-84
2023/05/06 01:44:33;;;;;;;;;;;;;;;18.93;57.32;101248.88;1252517;23;642;-85
2023/05/06 01:45:23;;;;;;;;;;;;;;;18.88;57.72;101245.72;1252085;23;617;-85
2023/05/06 01:46:14;;;;;;;;;;;;;;;18.89;57.99;101244.75;1249781;23;659;-84
2023/05/06 01:47:05;;;;;;;;;;;;;;;18.87;57.58;101240.47;1246227;23;678;-85
2023/05/06 01:47:55;;;;;;;;;;;;;;;18.86;57.38;101242.31;1243170;23;659;-85
2023/05/06 01:48:46;;;;;;;;;;;;;;;18.85;57.49;101248.72;1243092;23;644;-86
2023/05/06 01:49:36;;;;;;;;;;;;;;;18.87;57.41;101245.88;1242855;23;640;-85
2023/05/06 01:50:26;;;;;;;;;;;;;;;18.83;57.34;101253.41;1243149;23;638;-85
2023/05/06 01:51:17;;;;;;;;;;;;;;;18.81;58.24;101250.00;1243278;23;666;-85
2023/05/06 01:52:07;;;;;;;;;;;;;;;18.83;58.55;101250.72;1243991;23;674;-82
2023/05/06 01:52:58;;;;;;;;;;;;;;;18.88;57.93;101256.53;1237782;24;658;-84
2023/05/06 01:53:49;;;;;;;;;;;;;;;18.86;58.16;101258.53;1237758;24;642;-84
2023/05/06 01:54:39;;;;;;;;;;;;;;;18.86;57.45;101260.38;1243949;23;654;-85
2023/05/06 01:55:31;;;;;;;;;;;;;;;18.83;58.35;101258.81;1243974;23;621;-85
2023/05/06 01:56:21;;;;;;;;;;;;;;;18.82;57.67;101262.50;1237795;24;643;-84
2023/05/06 01:57:12;;;;;;;;;;;;;;;18.86;57.97;101263.06;1237628;24;622;-84
2023/05/06 01:58:02;;;;;;;;;;;;;;;18.87;57.40;101271.03;1243613;23;646;-84
2023/05/06 01:58:52;;;;;;;;;;;;;;;18.83;57.58;101264.22;1242174;23;745;-85
2023/05/06 01:59:43;;;;;;;;;;;;;;;18.84;57.97;101263.22;1237596;24;778;-84
2023/05/06 02:00:33;;;;;;;;;;;;;;;18.83;58.24;101269.59;1239244;23;623;-85
2023/05/06 02:01:24;;;;;;;;;;;;;;;18.81;58.10;101266.19;1243587;23;662;-85
2023/05/06 02:02:15;;;;;;;;;;;;;;;18.81;58.21;101271.59;1243049;23;710;-85
2023/05/06 02:03:05;;;;;;;;;;;;;;;18.80;58.01;101267.22;1242002;23;622;-83
2023/05/06 02:03:56;;;;;;;;;;;;;;;18.82;57.79;101267.03;1243571;23;654;-85
2023/05/06 02:04:46;;;;;;;;;;;;;;;18.80;57.42;101267.22;1243405;23;634;-85
2023/05/06 02:05:37;;;;;;;;;;;;;;;18.79;57.29;101273.63;1243777;23;651;-84
2023/05/06 02:06:27;;;;;;;;;;;;;;;18.78;58.22;101280.00;1243942;23;669;-85
2023/05/06 02:07:17;;;;;;;;;;;;;;;18.72;58.37;101276.00;1242186;23;670;-85
2023/05/06 02:08:08;;;;;;;;;;;;;;;18.72;58.39;101273.31;1243278;23;685;-86
2023/05/06 02:08:58;;;;;;;;;;;;;;;18.73;57.67;101271.47;1245192;23;681;-85
2023/05/06 02:09:49;;;;;;;;;;;;;;;18.72;57.62;101267.06;1238128;24;598;-86
2023/05/06 02:10:39;;;;;;;;;;;;;;;18.71;57.46;101271.59;1238215;24;662;-85
2023/05/06 02:11:30;;;;;;;;;;;;;;;18.70;57.92;101274.44;1244150;23;1889;-86
2023/05/06 02:12:20;;;;;;;;;;;;;;;18.71;58.24;101278.84;1243580;23;627;-86
2023/05/06 02:13:10;;;;;;;;;;;;;;;18.71;58.21;101271.59;1242567;23;658;-86
2023/05/06 02:14:01;;;;;;;;;;;;;;;18.73;57.94;101279.56;1243681;23;627;-86
2023/05/06 02:14:51;;;;;;;;;;;;;;;18.70;57.50;101275.31;1243755;23;662;-84
2023/05/06 02:15:42;;;;;;;;;;;;;;;18.71;57.43;101278.84;1244451;23;661;-85
2023/05/06 02:16:32;;;;;;;;;;;;;;;18.70;58.18;101274.44;1243557;23;662;-84
2023/05/06 02:17:23;;;;;;;;;;;;;;;18.71;57.46;101277.00;1242605;23;631;-85
2023/05/06 02:18:13;;;;;;;;;;;;;;;18.72;57.90;101280.56;1244292;23;717;-83
2023/05/06 02:19:05;;;;;;;;;;;;;;;18.68;57.71;101280.00;1237850;24;638;-83
2023/05/06 02:19:55;;;;;;;;;;;;;;;18.69;57.37;101276.28;1238043;24;722;-82
2023/05/06 02:20:45;;;;;;;;;;;;;;;18.71;57.38;101282.41;1243696;23;650;-81
2023/05/06 02:21:36;;;;;;;;;;;;;;;18.73;58.13;101282.28;1242679;23;654;-82
2023/05/06 02:22:26;;;;;;;;;;;;;;;18.74;57.50;101278.56;1242745;23;671;-83
2023/05/06 02:23:17;;;;;;;;;;;;;;;18.71;57.58;101281.56;1243602;23;700;-83
2023/05/06 02:24:07;;;;;;;;;;;;;;;18.70;58.24;101282.53;1242858;23;698;-84
2023/05/06 02:24:58;;;;;;;;;;;;;;;18.69;57.52;101283.53;1243771;23;654;-82
2023/05/06 02:25:49;;;;;;;;;;;;;;;18.68;58.24;101273.72;1244096;23;701;-82
2023/05/06 02:26:39;;;;;;;;;;;;;;;18.68;58.04;101276.44;1243171;23;639;-82
2023/05/06 02:27:30;;;;;;;;;;;;;;;18.65;57.79;101287.50;1243462;23;618;-82
2023/05/06 02:28:20;;;;;;;;;;;;;;;18.66;57.55;101278.41;1242860;23;726;-83
2023/05/06 02:29:10;;;;;;;;;;;;;;;18.65;58.15;101282.97;1243398;23;618;-82
2023/05/06 02:30:01;;;;;;;;;;;;;;;18.66;58.37;101281.97;1242662;23;627;-82
2023/05/06 02:30:51;;;;;;;;;;;;;;;18.66;58.22;101275.72;1243395;23;717;-83
2023/05/06 02:31:42;;;;;;;;;;;;;;;18.66;57.53;101278.41;1243571;23;1937;-82
2023/05/06 02:32:32;;;;;;;;;;;;;;;18.64;58.44;101281.25;1243033;23;671;-82
2023/05/06 02:33:23;;;;;;;;;;;;;;;18.63;57.96;101273.31;1243596;23;674;-81
2023/05/06 02:34:13;;;;;;;;;;;;;;;18.64;58.37;101275.00;1244112;23;658;-83
2023/05/06 02:35:04;;;;;;;;;;;;;;;18.64;57.56;101277.69;1237716;24;648;-82
2023/05/06 02:35:54;;;;;;;;;;;;;;;18.62;57.85;101282.41;1239351;23;857;-84
2023/05/06 02:36:45;;;;;;;;;;;;;;;18.63;57.99;101271.44;1237940;24;654;-84
2023/05/06 02:37:35;;;;;;;;;;;;;;;18.63;57.69;101274.16;1245879;23;645;-85
2023/05/06 02:38:25;;;;;;;;;;;;;;;18.64;58.19;101280.41;1242324;23;685;-85
2023/05/06 02:39:16;;;;;;;;;;;;;;;18.62;58.48;101277.03;1243478;23;703;-85
2023/05/06 02:40:07;;;;;;;;;;;;;;;18.61;58.56;101275.31;1243471;23;722;-85
2023/05/06 02:40:58;;;;;;;;;;;;;;;18.63;58.06;101273.31;1238129;24;673;-85
2023/05/06 02:41:48;;;;;;;;;;;;;;;18.62;57.55;101272.47;1238089;24;642;-84
2023/05/06 02:42:39;;;;;;;;;;;;;;;18.62;58.46;101277.03;1239030;23;638;-85
2023/05/06 02:43:29;;;;;;;;;;;;;;;18.60;58.46;101274.47;1239759;23;646;-85
2023/05/06 02:44:20;;;;;;;;;;;;;;;18.61;58.67;101283.41;1244253;23;615;-85
2023/05/06 02:45:10;;;;;;;;;;;;;;;18.60;58.35;101274.47;1245575;23;639;-83
2023/05/06 02:46:00;;;;;;;;;;;;;;;18.59;58.10;101282.69;1238628;24;658;-85
2023/05/06 02:46:51;;;;;;;;;;;;;;;18.59;58.26;101282.69;1239179;23;1241;-85
2023/05/06 02:47:41;;;;;;;;;;;;;;;18.60;58.14;101276.31;1244897;23;666;-85
2023/05/06 02:48:32;;;;;;;;;;;;;;;18.59;58.09;101278.16;1238311;24;655;-84
2023/05/06 02:49:22;;;;;;;;;;;;;;;18.57;58.36;101279.25;1239770;23;681;-83
2023/05/06 02:50:12;;;;;;;;;;;;;;;18.56;58.72;101274.84;1239728;23;693;-84
2023/05/06 02:51:03;;;;;;;;;;;;;;;18.57;57.80;101276.53;1239361;24;675;-81
2023/05/06 02:51:54;;;;;;;;;;;;;;;18.58;57.79;101281.81;1244300;23;663;-81
2023/05/06 02:52:44;;;;;;;;;;;;;;;18.59;58.23;101275.44;1237425;24;710;-82
2023/05/06 02:53:35;;;;;;;;;;;;;;;18.58;58.26;101271.00;1238272;23;650;-82
2023/05/06 02:54:26;;;;;;;;;;;;;;;18.58;58.63;101270.16;1238779;23;693;-83
2023/05/06 02:55:16;;;;;;;;;;;;;;;18.56;58.52;101274.84;1238107;24;626;-81
2023/05/06 02:56:07;;;;;;;;;;;;;;;18.57;58.70;101276.53;1244241;23;630;-82
2023/05/06 02:56:57;;;;;;;;;;;;;;;18.58;58.43;101275.56;1237334;24;675;-81
2023/05/06 02:57:47;;;;;;;;;;;;;;;18.57;58.83;101276.53;1237987;23;698;-81
2023/05/06 02:58:38;;;;;;;;;;;;;;;18.59;57.94;101271.91;1243919;23;662;-82
2023/05/06 02:59:28;;;;;;;;;;;;;;;18.57;58.43;101273.84;1243260;23;621;-82
2023/05/06 03:00:19;;;;;;;;;;;;;;;18.53;58.69;101275.13;1243479;23;627;-81
2023/05/06 03:01:09;;;;;;;;;;;;;;;18.53;58.21;101273.28;1243170;23;636;-82
2023/05/06 03:02:00;;;;;;;;;;;;;;;18.53;59.03;101272.41;1237115;24;611;-82
2023/05/06 03:02:50;;;;;;;;;;;;;;;18.53;58.41;101275.13;1239180;23;658;-83
2023/05/06 03:03:41;;;;;;;;;;;;;;;18.54;58.19;101274.13;1237505;24;666;-83
2023/05/06 03:04:31;;;;;;;;;;;;;;;18.55;57.99;101273.13;1243999;23;655;-83
2023/05/06 03:05:21;;;;;;;;;;;;;;;18.53;58.49;101275.13;1244271;23;654;-83
2023/05/06 03:06:12;;;;;;;;;;;;;;;18.54;58.27;101268.72;1244937;23;682;-83
2023/05/06 03:07:02;;;;;;;;;;;;;;;18.53;57.99;101267.88;1237853;24;607;-83
2023/05/06 03:07:54;;;;;;;;;;;;;;;18.53;58.71;101267.00;1239463;23;615;-83
2023/05/06 03:08:44;;;;;;;;;;;;;;;18.52;58.41;101270.72;1238899;23;725;-83
2023/05/06 03:09:35;;;;;;;;;;;;;;;18.54;58.26;101271.44;1243836;23;743;-83
2023/05/06 03:10:25;;;;;;;;;;;;;;;18.54;58.48;101266.03;1243953;23;674;-83
2023/05/06 03:11:16;;;;;;;;;;;;;;;18.54;58.46;101266.03;1243309;23;677;-81
2023/05/06 03:12:06;;;;;;;;;;;;;;;18.52;58.49;101271.56;1242906;23;631;-81
2023/05/06 03:12:56;;;;;;;;;;;;;;;18.51;58.49;101275.25;1237365;24;670;-82
2023/05/06 03:13:47;;;;;;;;;;;;;;;18.48;58.39;101266.56;1239165;23;631;-81
2023/05/06 03:14:37;;;;;;;;;;;;;;;18.50;58.72;101270.84;1239254;23;682;-80
2023/05/06 03:15:28;;;;;;;;;;;;;;;18.50;58.82;101268.16;1238015;23;705;-82
2023/05/06 03:16:18;;;;;;;;;;;;;;;18.50;58.92;101264.59;1244148;23;694;-81
2023/05/06 03:17:09;;;;;;;;;;;;;;;18.50;58.69;101260.03;1244744;23;659;-82
2023/05/06 03:17:59;;;;;;;;;;;;;;;18.49;58.54;101269.13;1244915;23;631;-82
2023/05/06 03:18:50;;;;;;;;;;;;;;;18.52;58.42;101265.31;1237585;24;605;-80
2023/05/06 03:19:40;;;;;;;;;;;;;;;18.50;58.87;101265.44;1238791;23;685;-80
2023/05/06 03:20:31;;;;;;;;;;;;;;;18.48;58.89;101263.88;1244002;23;615;-81
2023/05/06 03:21:21;;;;;;;;;;;;;;;18.49;58.43;101270.97;1243786;23;642;-82
2023/05/06 03:22:12;;;;;;;;;;;;;;;18.50;58.68;101265.44;1243583;23;670;-81
2023/05/06 03:23:02;;;;;;;;;;;;;;;18.49;58.41;101265.59;1243632;23;885;-81
2023/05/06 03:23:53;;;;;;;;;;;;;;;18.48;58.24;101269.28;1237186;24;643;-81
2023/05/06 03:24:43;;;;;;;;;;;;;;;18.46;59.41;101265.84;1239676;23;634;-81
2023/05/06 03:25:33;;;;;;;;;;;;;;;18.50;59.28;101262.75;1245449;23;643;-83
2023/05/06 03:26:24;;;;;;;;;;;;;;;18.50;58.77;101265.44;1244658;23;631;-85
2023/05/06 03:27:14;;;;;;;;;;;;;;;18.53;58.31;101269.72;1245832;23;717;-90
2023/05/06 03:28:05;;;;;;;;;;;;;;;18.51;59.17;101258.19;1239885;24;656;-90
2023/05/06 03:28:55;;;;;;;;;;;;;;;18.51;58.88;101272.56;1240239;23;768;-87
2023/05/06 03:29:46;;;;;;;;;;;;;;;18.52;58.08;101259.91;1247384;23;641;-88
2023/05/06 03:30:36;;;;;;;;;;;;;;;18.49;58.91;101263.75;1239365;24;688;-86
2023/05/06 03:31:27;;;;;;;;;;;;;;;18.49;59.00;101266.44;1239571;23;1916;-78
2023/05/06 03:32:17;;;;;;;;;;;;;;;18.50;58.81;101264.59;1244923;23;681;-84
2023/05/06 03:33:07;;;;;;;;;;;;;;;18.47;58.53;101254.94;1243689;23;674;-80
2023/05/06 03:33:58;;;;;;;;;;;;;;;18.47;58.05;101267.56;1242436;23;633;-77
2023/05/06 03:34:48;;;;;;;;;;;;;;;18.45;58.68;101264.19;1243768;23;647;-80
2023/05/06 03:35:39;;;;;;;;;;;;;;;18.44;58.58;101268.72;1243452;23;638;-80
2023/05/06 03:36:30;;;;;;;;;;;;;;;18.44;58.46;101267.88;1241552;23;639;-79
2023/05/06 03:37:20;;;;;;;;;;;;;;;18.43;58.39;101263.47;1236206;24;627;-78
2023/05/06 03:38:11;;;;;;;;;;;;;;;18.42;58.35;101264.47;1238935;23;682;-79
2023/05/06 03:39:01;;;;;;;;;;;;;;;18.42;58.14;101262.63;1239178;23;595;-77
2023/05/06 03:39:52;;;;;;;;;;;;;;;18.46;58.52;101265.84;1237458;24;619;-78
2023/05/06 03:40:42;;;;;;;;;;;;;;;18.47;58.38;101262.16;1243627;23;717;-78
2023/05/06 03:41:33;;;;;;;;;;;;;;;18.48;58.60;101261.19;1236444;24;658;-78
2023/05/06 03:42:23;;;;;;;;;;;;;;;18.45;58.25;101261.47;1237518;23;686;-78
2023/05/06 03:43:14;;;;;;;;;;;;;;;18.44;58.97;101267.88;1243322;23;642;-78
2023/05/06 03:44:04;;;;;;;;;;;;;;;18.44;58.07;101265.19;1242008;23;729;-78
2023/05/06 03:44:55;;;;;;;;;;;;;;;18.44;58.06;101268.72;1242608;23;792;-80
2023/05/06 03:45:45;;;;;;;;;;;;;;;18.43;58.28;101264.31;1241916;23;635;-79
2023/05/06 03:46:37;;;;;;;;;;;;;;;18.44;59.00;101265.19;1244740;23;975;-78
2023/05/06 03:47:28;;;;;;;;;;;;;;;18.43;58.70;101264.31;1248250;23;626;-78
2023/05/06 03:48:18;;;;;;;;;;;;;;;18.46;58.05;101271.25;1246473;23;686;-77
2023/05/06 03:49:09;;;;;;;;;;;;;;;18.45;58.18;101266.88;1250857;23;633;-77
2023/05/06 03:49:59;;;;;;;;;;;;;;;18.42;58.09;101265.31;1250656;23;645;-78
2023/05/06 03:50:50;;;;;;;;;;;;;;;18.44;58.20;101262.47;1250909;23;666;-78
2023/05/06 03:51:41;;;;;;;;;;;;;;;18.43;58.96;101266.16;1250530;23;1913;-77
2023/05/06 03:52:31;;;;;;;;;;;;;;;18.42;58.75;101269.84;1246648;23;651;-77
2023/05/06 03:53:21;;;;;;;;;;;;;;;18.42;58.92;101265.31;1246825;23;638;-77
2023/05/06 03:54:12;;;;;;;;;;;;;;;18.42;58.25;101268.00;1247237;23;622;-83
2023/05/06 03:55:02;;;;;;;;;;;;;;;18.38;58.18;101267.44;1247794;23;622;-80
2023/05/06 03:55:53;;;;;;;;;;;;;;;18.38;58.17;101264.72;1246848;23;658;-81
2023/05/06 03:56:43;;;;;;;;;;;;;;;18.43;58.84;101271.56;1247392;23;645;-82
2023/05/06 03:57:34;;;;;;;;;;;;;;;18.41;58.16;101268.16;1245381;23;673;-81
2023/05/06 03:58:24;;;;;;;;;;;;;;;18.42;58.69;101264.47;1249717;23;626;-81
2023/05/06 03:59:15;;;;;;;;;;;;;;;18.39;58.84;101271.84;1248258;23;683;-82
2023/05/06 04:00:05;;;;;;;;;;;;;;;18.43;58.24;101267.03;1251125;23;668;-82
2023/05/06 04:00:56;;;;;;;;;;;;;;;18.44;58.14;101273.28;1247158;23;666;-82
2023/05/06 04:01:46;;;;;;;;;;;;;;;18.38;58.04;101263.88;1251767;23;633;-83
2023/05/06 04:02:37;;;;;;;;;;;;;;;18.38;58.12;101266.56;1248326;23;776;-84
2023/05/06 04:03:27;;;;;;;;;;;;;;;18.36;58.86;101266.72;1248265;23;709;-83
2023/05/06 04:04:18;;;;;;;;;;;;;;;18.34;58.07;101270.53;1251013;23;646;-83
2023/05/06 04:05:08;;;;;;;;;;;;;;;18.34;58.82;101260.59;1250588;23;625;-84
2023/05/06 04:05:59;;;;;;;;;;;;;;;18.35;58.71;101270.41;1249170;23;764;-80
2023/05/06 04:06:49;;;;;;;;;;;;;;;18.34;58.86;101266.00;1247198;23;625;-81
2023/05/06 04:07:39;;;;;;;;;;;;;;;18.33;59.12;101264.28;1247079;23;768;-80
2023/05/06 04:08:30;;;;;;;;;;;;;;;18.34;58.15;101268.69;1247826;23;629;-81
2023/05/06 04:09:20;;;;;;;;;;;;;;;18.33;58.23;101274.22;1248598;23;614;-81
2023/05/06 04:10:11;;;;;;;;;;;;;;;18.35;58.33;101280.34;1251311;23;642;-81
2023/05/06 04:11:01;;;;;;;;;;;;;;;18.37;58.75;101276.50;1251275;23;661;-82
2023/05/06 04:11:52;;;;;;;;;;;;;;;18.38;58.25;101275.53;1250700;23;1885;-80
2023/05/06 04:12:42;;;;;;;;;;;;;;;18.38;57.75;101275.53;1250623;23;645;-80
2023/05/06 04:13:33;;;;;;;;;;;;;;;18.35;58.53;101270.41;1246887;23;610;-80
2023/05/06 04:14:23;;;;;;;;;;;;;;;18.33;58.40;101272.38;1246499;23;682;-80
2023/05/06 04:15:14;;;;;;;;;;;;;;;18.31;58.91;101263.56;1247329;23;607;-80
2023/05/06 04:16:04;;;;;;;;;;;;;;;18.34;59.04;101275.94;1250642;23;629;-79
2023/05/06 04:16:55;;;;;;;;;;;;;;;18.33;58.64;101272.38;1246919;23;623;-79
2023/05/06 04:17:45;;;;;;;;;;;;;;;18.33;58.90;101261.59;1249337;23;618;-80
2023/05/06 04:18:36;;;;;;;;;;;;;;;18.32;58.64;101262.59;1248112;23;689;-80
2023/05/06 04:19:26;;;;;;;;;;;;;;;18.32;57.82;101267.97;1250390;23;641;-80
2023/05/06 04:20:17;;;;;;;;;;;;;;;18.32;58.99;101264.44;1246566;23;674;-81
2023/05/06 04:21:09;;;;;;;;;;;;;;;18.30;58.58;101272.66;1246592;23;643;-80
2023/05/06 04:21:59;;;;;;;;;;;;;;;18.28;58.24;101269.25;1247222;23;622;-80
2023/05/06 04:22:50;;;;;;;;;;;;;;;18.29;58.60;101270.94;1246815;23;674;-79
2023/05/06 04:23:41;;;;;;;;;;;;;;;18.30;58.15;101261.88;1247233;23;688;-80
2023/05/06 04:24:32;;;;;;;;;;;;;;;18.32;58.98;101270.69;1246361;23;827;-80
2023/05/06 04:25:23;;;;;;;;;;;;;;;18.31;58.57;101277.06;1246893;23;667;-80
2023/05/06 04:26:13;;;;;;;;;;;;;;;18.30;57.97;101269.97;1247427;23;685;-81
2023/05/06 04:27:04;;;;;;;;;;;;;;;18.29;58.51;101272.78;1250851;23;645;-81